Latest Weather Observations for Sheffield

IDT60801

Issued at 10:35 pm EST Wednesday 23 April 2014 (issued every 30 minutes, with the page automatically refreshed every 10 minutes)

About weather observations | Map of weather stations | Latest weather observations for TAS | Other Formats
Station Details ID: 091291 Name: SHEFFIELD SCHOOL FARM Lat: -41.39 Lon: 146.32 Height: 294.2 m
Data from the previous 72 hours. | See also: Recent months at Sheffield
Date/Time
EST
Temp
°C
App
Temp
°C
Dew
Point
Rel
Hum
%
Delta-T
°C
Wind Press
QNH
hPa
Press
MSL
hPa
Rain
since 9 am
mm
Dir
 
Spd
km/h
Gust
km/h
Spd
kts
Gust
kts
23/10:30pm 9.7 8.9 9.6 99 0.1 N 4 6 2 3 1008.8 - 0.0
23/10:00pm 10.0 8.8 9.5 97 0.3 N 6 9 3 5 1009.1 1009.0 0.0
23/09:30pm 10.0 8.4 8.9 93 0.6 N 7 9 4 5 1009.4 - 0.0
23/09:00pm 10.0 9.1 9.2 95 0.4 N 4 7 2 4 1009.7 1009.6 0.0
23/08:30pm 10.4 10.2 9.2 92 0.6 CALM 0 0 0 0 1009.8 - 0.0
23/08:00pm 10.4 9.5 9.3 93 0.6 N 4 4 2 2 1010.1 1010.1 0.0
23/07:30pm 9.8 7.9 9.2 96 0.3 NNW 9 11 5 6 1010.4 - 0.0
23/07:00pm 9.8 7.2 9.2 96 0.3 NW 13 15 7 8 1010.3 1010.3 0.0
23/06:30pm 10.1 6.9 10.0 99 0.1 NW 17 20 9 11 1010.2 - 0.0
23/06:00pm 10.0 7.2 10.0 100 0.0 NNW 15 19 8 10 1010.2 1010.2 0.0
23/05:30pm 10.7 8.8 10.5 99 0.1 NNW 11 15 6 8 1010.4 - 0.0
23/05:00pm 11.9 10.5 11.0 94 0.5 NNW 9 13 5 7 1010.5 1010.5 0.0
23/04:30pm 12.1 9.9 10.7 91 0.7 NNW 13 20 7 11 1010.6 - 0.0
23/04:00pm 12.3 9.4 10.9 91 0.7 NNW 17 22 9 12 1010.9 1010.9 0.0
23/03:30pm 12.2 9.6 10.6 90 0.8 NNW 15 22 8 12 1010.9 - 0.0
23/03:00pm 12.7 10.3 11.4 92 0.7 NNW 15 20 8 11 1011.1 1011.1 0.0
23/02:30pm 12.6 10.1 11.0 90 0.9 NW 15 24 8 13 1011.5 - 0.0
23/02:00pm 12.3 10.0 10.4 88 1.0 WNW 13 22 7 12 1012.0 1011.9 0.0
23/01:30pm 11.8 8.4 10.4 91 0.7 NW 19 22 10 12 1012.3 - 0.0
23/01:00pm 11.7 8.4 9.4 86 1.2 NNW 17 22 9 12 1012.7 1012.6 0.0
23/12:30pm 13.2 10.2 9.1 76 2.1 NNW 15 24 8 13 1013.0 - 0.0
23/12:00pm 12.9 9.8 8.8 76 2.1 NNW 15 22 8 12 1013.6 1013.6 0.0
23/11:30am 12.7 9.5 8.6 76 2.1 NNW 15 20 8 11 1013.9 - 0.0
23/11:00am 12.6 10.1 9.8 83 1.5 NW 13 17 7 9 1013.9 1013.9 0.0
23/10:30am 11.8 9.9 9.2 84 1.3 NNW 9 15 5 8 1014.3 - 0.0
23/10:00am 10.9 9.8 9.8 93 0.6 NNW 6 9 3 5 1014.7 1014.7 0.0
23/09:30am 8.9 7.5 8.8 99 0.0 NNW 6 7 3 4 1015.1 - 0.0
23/09:00am 8.0 6.2 8.0 100 0.0 N 7 9 4 5 1015.2 1015.2 0.0
23/08:30am 6.8 6.1 6.8 100 0.0 CALM 0 0 0 0 1015.1 - 0.0
23/08:00am 5.8 4.1 5.8 100 0.0 WNW 4 6 2 3 1015.0 1015.0 0.0
23/07:30am 4.8 2.5 4.8 100 0.0 WSW 6 7 3 4 1014.8 - 0.0
23/07:00am 4.7 2.4 4.7 100 0.0 NW 6 7 3 4 1014.7 1014.7 0.0
23/06:30am 4.0 1.4 4.0 100 0.0 NNW 7 9 4 5 1014.5 - 0.0
23/06:00am 5.1 3.2 5.1 100 0.0 WSW 4 7 2 4 1014.4 1014.4 0.0
23/05:30am 5.0 3.9 5.0 100 0.0 CALM 0 0 0 0 1014.6 - 0.0
23/05:00am 5.0 2.7 5.0 100 0.0 NNW 6 7 3 4 1014.6 1014.6 0.0
23/04:30am 3.7 1.0 3.6 99 0.0 NW 7 9 4 5 1014.7 - 0.0
23/04:00am 5.3 3.8 5.2 99 0.0 WNW 2 4 1 2 1014.4 1014.4 0.0
23/03:30am 5.3 2.9 5.2 99 0.0 NW 7 9 4 5 1014.5 - 0.0
23/03:00am 6.5 5.7 6.5 100 0.0 CALM 0 0 0 0 1014.7 1014.7 0.0
23/02:30am 6.3 5.0 6.2 99 0.0 NNW 2 4 1 2 1014.8 - 0.0
23/02:00am 6.2 4.6 6.2 100 0.0 N 4 6 2 3 1014.9 1014.9 0.0
23/01:30am 6.3 4.7 6.2 99 0.0 NNW 4 6 2 3 1015.1 - 0.0
23/01:00am 6.2 4.0 6.1 99 0.0 NNW 7 9 4 5 1015.1 1015.1 0.0
23/12:30am 6.8 4.7 6.7 99 0.0 NNW 7 9 4 5 1015.0 - 0.0
23/12:00am 7.3 4.9 7.0 98 0.1 N 9 11 5 6 1014.8 1014.8 0.0
 
Date/Time
EST
Temp
°C
App
Temp
°C
Dew
Point
Rel
Hum
%
Delta-T
°C
Wind Press
QNH
hPa
Press
MSL
hPa
Rain
since 9 am
mm
Dir
 
Spd
km/h
Gust
km/h
Spd
kts
Gust
kts
22/11:30pm 6.9 4.0 6.6 98 0.1 N 11 13 6 7 1014.8 - 0.0
22/11:00pm 7.0 4.8 6.1 94 0.4 N 7 11 4 6 1014.7 1014.7 0.0
22/10:30pm 7.9 5.0 6.7 92 0.6 NNW 11 15 6 8 1014.7 - 0.0
22/10:00pm 9.8 6.3 7.2 84 1.3 NW 15 20 8 11 1014.5 1014.5 0.0
22/09:30pm 8.1 4.8 6.4 89 0.8 NNW 13 15 7 8 1014.2 - 0.0
22/09:00pm 8.2 5.2 6.2 87 0.9 NW 11 15 6 8 1013.9 1013.9 0.0
22/08:30pm 9.3 6.0 6.6 83 1.3 WNW 13 20 7 11 1013.5 - 0.0
22/08:00pm 8.5 5.0 5.4 81 1.4 WNW 13 17 7 9 1013.4 1013.4 0.0
22/07:30pm 9.2 6.1 5.4 77 1.7 WNW 11 19 6 10 1013.2 - 0.0
22/07:00pm 9.7 6.2 5.5 75 1.9 WNW 13 17 7 9 1012.9 1012.9 0.0
22/06:30pm 10.2 6.8 5.8 74 2.1 W 13 19 7 10 1012.7 - 0.0
22/06:00pm 10.9 6.6 5.4 69 2.6 W 17 24 9 13 1012.2 1012.1 0.0
22/05:30pm 11.0 6.8 5.5 69 2.6 W 17 26 9 14 1011.6 - 0.0
22/05:00pm 11.8 7.2 5.4 65 3.0 W 19 26 10 14 1011.3 1011.3 0.0
22/04:30pm 12.7 7.0 4.7 58 3.7 W 24 46 13 25 1010.8 - 0.0
22/04:00pm 13.2 8.1 5.9 61 3.5 W 22 37 12 20 1010.7 1010.7 0.0
22/03:30pm 13.6 6.3 5.3 57 3.9 WSW 33 46 18 25 1010.6 - 0.0
22/03:00pm 14.0 7.9 6.4 60 3.7 W 28 41 15 22 1010.4 1010.4 0.0
22/02:30pm 13.4 7.0 7.0 65 3.1 WSW 30 48 16 26 1010.3 - 0.0
22/02:00pm 14.0 8.6 7.8 66 3.1 WSW 26 37 14 20 1009.8 1009.7 0.0
22/01:30pm 14.2 9.4 9.0 71 2.7 W 24 37 13 20 1009.5 - 0.0
22/01:00pm 14.1 10.5 9.9 76 2.2 W 19 32 10 17 1009.4 1009.3 0.0
22/12:30pm 15.3 10.9 10.5 73 2.6 WNW 24 35 13 19 1009.1 - 0.0
22/12:00pm 15.4 10.9 10.0 70 2.9 W 24 39 13 21 1009.3 1009.2 0.0
22/11:30am 15.3 10.8 10.1 71 2.8 WNW 24 37 13 20 1009.2 - 0.0
22/11:00am 14.9 10.7 9.7 71 2.7 WNW 22 33 12 18 1009.1 1009.0 0.0
22/10:30am 14.7 10.2 10.1 74 2.4 WNW 24 33 13 18 1009.1 - 0.0
22/10:00am 14.5 11.3 11.8 84 1.5 WNW 20 28 11 15 1009.2 1009.1 0.0
22/09:30am 13.5 11.4 12.4 93 0.6 WNW 15 20 8 11 1009.1 - 0.0
22/09:00am 12.9 11.7 12.9 100 0.0 NW 11 13 6 7 1009.0 1008.9 25.4
22/08:30am 12.9 11.0 12.9 100 0.0 NNW 15 20 8 11 1009.0 - 25.4
22/08:00am 12.8 11.6 12.8 100 0.0 NNW 11 15 6 8 1008.7 1008.6 25.4
22/07:30am 12.7 11.5 12.7 100 0.0 NNW 11 13 6 7 1008.1 - 25.4
22/07:00am 12.8 10.4 12.8 100 0.0 NNW 17 20 9 11 1008.1 1008.1 25.4
22/06:30am 12.6 11.3 12.6 100 0.0 NNW 11 13 6 7 1007.3 - 25.4
22/06:00am 13.1 11.6 13.1 100 0.0 NNW 13 15 7 8 1007.2 1007.2 25.4
22/05:30am 13.4 11.6 13.4 100 0.0 NNW 15 19 8 10 1007.2 - 25.2
22/05:00am 13.4 12.0 13.4 100 0.0 NNW 13 19 7 10 1007.1 1007.1 25.2
22/04:30am 13.9 11.3 13.7 99 0.1 NW 20 32 11 17 1007.4 - 25.0
22/04:00am 14.1 10.9 13.1 94 0.6 NW 22 30 12 16 1007.1 1007.1 25.0
22/03:30am 13.9 10.7 13.0 94 0.5 NW 22 32 12 17 1007.1 - 25.0
22/03:00am 13.8 10.5 12.9 94 0.5 NW 22 32 12 17 1007.4 1007.4 25.0
22/02:30am 13.6 10.4 13.1 97 0.3 NW 22 28 12 15 1007.7 - 25.0
22/02:00am 13.1 10.8 13.1 100 0.0 NW 17 22 9 12 1008.1 1008.1 25.0
22/01:30am 12.8 10.4 12.8 100 0.0 NW 17 20 9 11 1008.4 - 25.0
22/01:00am 11.9 11.2 11.9 100 0.0 NW 7 11 4 6 1008.8 1008.7 25.0
22/12:30am 11.1 10.3 11.1 100 0.0 WSW 6 9 3 5 1009.2 - 25.0
22/12:00am 11.5 11.2 11.5 100 0.0 NNW 4 7 2 4 1009.6 1009.5 25.0
 
Date/Time
EST
Temp
°C
App
Temp
°C
Dew
Point
Rel
Hum
%
Delta-T
°C
Wind Press
QNH
hPa
Press
MSL
hPa
Rain
since 9 am
mm
Dir
 
Spd
km/h
Gust
km/h
Spd
kts
Gust
kts
21/11:30pm 10.4 8.9 10.4 100 0.0 W 9 19 5 10 1010.0 - 25.0
21/11:00pm 10.4 9.8 10.4 100 0.0 NW 4 6 2 3 1010.3 1010.3 24.8
21/10:30pm 9.8 9.4 9.8 100 0.0 SE 2 6 1 3 1011.0 - 24.6
21/10:00pm 8.8 7.4 8.8 100 0.0 SSW 6 11 3 6 1011.1 1011.1 22.6
21/09:30pm 7.8 6.0 7.8 100 0.0 SSW 7 9 4 5 1011.4 - 22.0
21/09:00pm 7.8 6.0 7.8 100 0.0 SE 7 11 4 6 1011.7 1011.7 21.0
21/08:30pm 7.6 6.3 7.6 100 0.0 ESE 4 6 2 3 1012.0 - 19.4
21/08:00pm 7.6 5.9 7.6 100 0.0 SE 6 9 3 5 1012.4 1012.3 19.0
21/07:30pm 7.5 5.6 7.5 100 0.0 ESE 7 9 4 5 1012.6 - 18.8
21/07:00pm 7.4 5.7 7.4 100 0.0 SSE 6 7 3 4 1012.9 1012.9 18.8
21/06:30pm 7.3 5.3 7.3 100 0.0 SE 7 11 4 6 1012.7 - 17.2
21/06:00pm 7.3 5.0 7.3 100 0.0 ESE 9 11 5 6 1012.7 1012.6 14.4
21/05:30pm 7.3 5.0 7.3 100 0.0 ESE 9 11 5 6 1012.5 - 11.6
21/05:00pm 6.9 4.5 6.9 100 0.0 SE 9 13 5 7 1012.5 1012.4 9.8
21/04:30pm 6.7 5.2 6.7 100 0.0 ESE 4 7 2 4 1013.0 - 9.2
21/04:00pm 6.4 4.8 6.4 100 0.0 SSE 4 6 2 3 1013.5 1013.5 8.4
21/03:30pm 6.2 3.6 6.2 100 0.0 SE 9 13 5 7 1013.7 - 7.0
21/03:00pm 6.2 3.6 6.2 100 0.0 ESE 9 15 5 8 1014.0 1014.0 6.0
21/02:30pm 6.1 3.1 6.0 99 0.0 SE 11 15 6 8 1014.4 - 5.2
21/02:00pm 6.0 3.0 5.9 99 0.0 SE 11 15 6 8 1015.1 1015.1 3.4
21/01:30pm 5.9 2.5 5.8 99 0.0 SE 13 19 7 10 1015.4 - 1.4
21/01:00pm 6.0 3.0 5.9 99 0.0 SE 11 13 6 7 1016.0 1016.0 0.8
21/12:30pm 5.8 2.0 5.7 99 0.0 SE 15 19 8 10 1016.4 - 0.8
21/12:00pm 5.9 2.8 5.5 97 0.2 SSE 11 17 6 9 1017.3 1017.3 0.6
21/11:30am 6.3 2.3 4.8 90 0.7 SSE 15 20 8 11 1017.4 - 0.2
21/11:00am 6.5 2.9 4.8 89 0.8 SE 13 17 7 9 1017.6 1017.6 0.2
21/10:30am 6.4 3.5 4.4 87 0.9 ESE 9 13 5 7 1018.1 - 0.2
21/10:00am 6.2 3.2 3.9 85 1.0 ESE 9 11 5 6 1017.9 1017.9 0.0
21/09:30am 6.2 2.4 3.7 84 1.1 SE 13 19 7 10 1018.1 - 0.0
21/09:00am 6.5 3.4 3.7 82 1.2 ESE 9 13 5 7 1018.0 1018.0 0.0
21/08:30am 5.9 4.2 3.9 87 0.9 S 2 6 1 3 1018.4 - 0.0
21/08:00am 4.6 3.1 2.9 89 0.7 CALM 0 0 0 0 1018.1 1018.1 0.0
21/07:30am 2.9 1.3 2.2 95 0.3 CALM 0 0 0 0 1017.8 - 0.0
21/07:00am 1.9 -1.1 0.7 92 0.5 SSE 6 6 3 3 1017.6 1017.6 0.0
21/06:30am 2.2 -0.3 1.5 95 0.3 S 4 6 2 3 1017.6 - 0.0
21/06:00am 2.0 -0.4 1.9 99 0.0 SE 4 6 2 3 1017.2 1017.2 0.0
21/05:30am 2.0 -0.6 1.1 94 0.3 SSW 4 6 2 3 1017.2 - 0.0
21/05:00am 2.2 0.1 1.6 96 0.2 S 2 4 1 2 1016.9 1016.9 0.0
21/04:30am 2.6 0.9 2.0 96 0.2 CALM 0 0 0 0 1016.6 - 0.0
21/04:00am 3.2 1.6 2.6 96 0.2 CALM 0 0 0 0 1016.3 1016.3 0.0
21/03:30am 3.0 1.0 2.1 94 0.4 NW 2 6 1 3 1016.2 - 0.0
21/03:00am 2.9 -0.2 1.6 91 0.5 NNW 7 9 4 5 1016.2 1016.2 0.0
21/02:30am 4.0 2.3 1.7 85 0.9 CALM 0 4 0 2 1015.9 - 0.0
21/02:00am 5.9 3.4 1.6 74 1.8 WSW 4 9 2 5 1016.0 1016.0 0.0
21/01:30am 4.8 2.0 1.8 81 1.2 W 6 7 3 4 1015.9 - 0.0
21/01:00am 5.9 3.0 2.4 78 1.5 W 7 9 4 5 1015.8 1015.8 0.0
21/12:30am 5.9 4.3 2.2 77 1.5 CALM 0 4 0 2 1015.6 - 0.0
21/12:00am 5.4 3.3 1.9 78 1.4 ESE 2 6 1 3 1015.2 1015.2 0.0
 
Date/Time
EST
Temp
°C
App
Temp
°C
Dew
Point
Rel
Hum
%
Delta-T
°C
Wind Press
QNH
hPa
Press
MSL
hPa
Rain
since 9 am
mm
Dir
 
Spd
km/h
Gust
km/h
Spd
kts
Gust
kts
20/11:30pm 6.1 3.1 2.0 75 1.7 W 7 9 4 5 1015.2 - 0.0
20/11:00pm 6.4 3.5 2.5 76 1.6 W 7 13 4 7 1015.2 1015.2 0.0

Other Formats:

Comma delimited format used in spreadsheet applications
http://www.bom.gov.au/fwo/IDT60801/IDT60801.94955.axf

JavaScript Object Notation format (JSON) in row-major order
http://www.bom.gov.au/fwo/IDT60801/IDT60801.94955.json